Time;durP1;ratioP1;P1;durP2;ratioP2;P2;SDS_P1;SDS_P2;PMS_P1;PMS_P2;Temp;Humidity;BMP_temperature;BMP_pressure;BME280_temperature;BME280_humidity;BME280_pressure;Samples;Min_cycle;Max_cycle;Signal;HPM_P1;HPM_P2
2021/09/26 00:01:02;;;;;;;8.80;6.50;;;18.10;99.90;;;;;;5055695;28;20231;-75
2021/09/26 00:03:29;;;;;;;9.43;6.13;;;18.10;99.90;;;;;;5055794;28;20196;-75
2021/09/26 00:05:58;;;;;;;11.20;6.27;;;18.10;99.90;;;;;;5055926;28;20197;-75
2021/09/26 00:08:25;;;;;;;8.33;6.17;;;18.10;99.90;;;;;;5055915;28;20202;-75
2021/09/26 00:10:52;;;;;;;8.80;6.50;;;18.20;99.90;;;;;;5055776;28;20243;-75
2021/09/26 00:13:19;;;;;;;12.00;6.13;;;18.20;99.90;;;;;;5055780;28;20202;-75
2021/09/26 00:15:46;;;;;;;10.23;6.67;;;18.20;99.90;;;;;;5055785;28;20203;-75
2021/09/26 00:18:13;;;;;;;11.90;6.73;;;18.30;99.90;;;;;;5055893;28;20200;-75
2021/09/26 00:20:40;;;;;;;10.20;6.37;;;18.40;99.90;;;;;;5055679;28;20315;-75
2021/09/26 00:23:08;;;;;;;10.07;7.10;;;18.40;99.90;;;;;;5055610;28;20196;-75
2021/09/26 00:25:35;;;;;;;10.97;6.23;;;18.40;99.90;;;;;;5055545;28;20733;-75
2021/09/26 00:28:02;;;;;;;12.67;6.83;;;18.30;99.90;;;;;;5055300;28;20202;-75
2021/09/26 00:30:29;;;;;;;11.50;6.97;;;18.40;99.90;;;;;;5055620;28;20223;-75
2021/09/26 00:32:56;;;;;;;12.93;6.80;;;18.30;99.90;;;;;;5055186;28;20204;-75
2021/09/26 00:35:23;;;;;;;9.40;7.10;;;18.40;99.90;;;;;;5055343;28;20202;-75
2021/09/26 00:37:50;;;;;;;8.83;6.60;;;18.40;99.90;;;;;;5055258;28;20208;-75
2021/09/26 00:40:18;;;;;;;9.97;6.47;;;18.40;99.90;;;;;;5055407;28;20228;-75
2021/09/26 00:42:45;;;;;;;9.10;6.87;;;18.40;99.90;;;;;;5055105;28;20191;-75
2021/09/26 00:45:13;;;;;;;9.83;6.50;;;18.30;99.90;;;;;;5055178;28;20196;-75
2021/09/26 00:47:40;;;;;;;12.50;7.10;;;18.30;99.90;;;;;;5055318;28;20192;-75
2021/09/26 00:50:08;;;;;;;10.40;7.40;;;18.40;99.90;;;;;;5054052;28;20200;-75
2021/09/26 00:52:37;;;;;;;9.57;6.03;;;18.50;99.90;;;;;;5055050;28;20192;-75
2021/09/26 00:55:04;;;;;;;9.37;6.67;;;18.50;99.90;;;;;;5054819;28;20193;-75
2021/09/26 00:57:34;;;;;;;10.40;6.63;;;18.50;99.90;;;;;;5055165;28;20192;-75
2021/09/26 01:00:01;;;;;;;11.73;7.30;;;18.50;99.90;;;;;;5054690;28;20666;-75
2021/09/26 01:02:28;;;;;;;10.77;6.57;;;18.60;99.90;;;;;;5054909;28;20559;-75
2021/09/26 01:04:55;;;;;;;11.00;7.07;;;18.60;99.90;;;;;;5054730;28;20232;-75
2021/09/26 01:07:29;;;;;;;11.57;6.93;;;18.70;99.90;;;;;;5054709;28;20207;-75
2021/09/26 01:10:03;;;;;;;8.87;6.77;;;18.70;99.90;;;;;;5054652;28;20199;-75
2021/09/26 01:12:38;;;;;;;11.27;7.20;;;18.70;99.90;;;;;;5054468;28;20200;-75
2021/09/26 01:15:12;;;;;;;10.13;7.40;;;18.80;99.90;;;;;;5054709;28;20227;-75
2021/09/26 01:17:44;;;;;;;11.13;7.60;;;18.70;99.90;;;;;;5054694;28;20219;-75
2021/09/26 01:20:36;;;;;;;12.93;8.20;;;18.80;99.90;;;;;;5054294;28;20220;-75
2021/09/26 01:23:31;;;;;;;11.53;7.33;;;18.90;99.90;;;;;;5049632;28;20196;-75
2021/09/26 01:26:10;;;;;;;11.80;7.63;;;19.00;99.90;;;;;;5054273;28;20192;-75
2021/09/26 01:28:52;;;;;;;9.83;6.70;;;19.00;99.90;;;;;;5054212;28;20208;-75
2021/09/26 01:31:27;;;;;;;11.33;7.53;;;19.00;99.90;;;;;;5054312;28;20206;-75
2021/09/26 01:33:58;;;;;;;9.30;7.40;;;18.90;99.90;;;;;;5054246;28;20208;-75
2021/09/26 01:36:30;;;;;;;12.40;7.97;;;19.00;99.90;;;;;;5054269;28;20568;-75
2021/09/26 01:39:04;;;;;;;12.77;7.70;;;19.00;99.90;;;;;;5054125;28;20200;-75
2021/09/26 01:41:36;;;;;;;10.70;7.83;;;19.00;99.90;;;;;;5053877;28;20238;-75
2021/09/26 01:44:08;;;;;;;12.93;7.53;;;19.00;99.90;;;;;;5054124;28;20224;-75
2021/09/26 01:46:40;;;;;;;16.00;7.83;;;18.90;99.90;;;;;;5053788;28;20649;-75
2021/09/26 01:49:13;;;;;;;12.40;8.27;;;19.00;99.90;;;;;;5053970;28;20201;-75
2021/09/26 01:51:43;;;;;;;9.93;7.70;;;19.00;99.90;;;;;;5054083;28;20204;-75
2021/09/26 01:54:15;;;;;;;13.20;8.47;;;19.00;99.90;;;;;;5053838;28;20196;-76
2021/09/26 01:56:43;;;;;;;14.87;8.60;;;19.10;99.90;;;;;;5053928;28;20283;-75
2021/09/26 01:59:11;;;;;;;10.67;7.80;;;19.00;99.90;;;;;;5053783;28;20220;-75
2021/09/26 02:01:41;;;;;;;12.07;8.23;;;19.00;99.90;;;;;;5053370;28;20234;-75
2021/09/26 02:04:08;;;;;;;12.57;8.00;;;19.10;99.90;;;;;;5053490;28;20192;-75
2021/09/26 02:06:36;;;;;;;12.70;7.90;;;19.20;99.90;;;;;;5053723;28;20568;-75
2021/09/26 02:09:03;;;;;;;13.50;8.40;;;19.20;99.90;;;;;;5053505;28;20287;-75
2021/09/26 02:11:31;;;;;;;19.77;9.63;;;19.10;99.90;;;;;;5053978;28;20211;-74
2021/09/26 02:13:59;;;;;;;18.33;10.20;;;18.90;99.90;;;;;;5053371;28;20657;-74
2021/09/26 02:16:26;;;;;;;15.37;9.37;;;18.80;99.90;;;;;;5053250;28;20211;-74
2021/09/26 02:18:55;;;;;;;16.77;10.13;;;18.70;99.90;;;;;;5053586;28;20192;-74
2021/09/26 02:21:23;;;;;;;18.97;10.83;;;18.60;99.90;;;;;;5053418;28;20602;-74
2021/09/26 02:23:51;;;;;;;18.13;10.43;;;18.50;99.90;;;;;;5053427;28;20196;-74
2021/09/26 02:26:18;;;;;;;15.60;10.57;;;18.40;99.90;;;;;;5053253;28;20200;-74
2021/09/26 02:28:45;;;;;;;19.20;10.40;;;18.40;99.90;;;;;;5053201;28;20204;-74
2021/09/26 02:31:13;;;;;;;17.50;10.97;;;18.30;99.90;;;;;;5053496;28;20197;-74
2021/09/26 02:33:44;;;;;;;16.17;11.67;;;18.30;99.90;;;;;;5053114;28;20204;-74
2021/09/26 02:36:14;;;;;;;18.63;12.10;;;18.20;99.90;;;;;;5053000;28;20698;-74
2021/09/26 02:38:41;;;;;;;20.40;12.10;;;18.30;99.90;;;;;;5053110;28;20660;-74
2021/09/26 02:41:18;;;;;;;20.73;12.37;;;18.30;99.90;;;;;;5052906;28;20714;-74
2021/09/26 02:43:53;;;;;;;19.73;11.93;;;18.30;99.90;;;;;;5053286;28;20192;-74
2021/09/26 02:46:26;;;;;;;18.13;10.70;;;18.30;99.90;;;;;;5053067;28;20202;-74
2021/09/26 02:48:54;;;;;;;16.87;11.83;;;18.30;99.90;;;;;;5053041;28;20210;-74
2021/09/26 02:51:24;;;;;;;19.27;11.17;;;18.30;99.90;;;;;;5052854;28;20298;-74
2021/09/26 02:53:52;;;;;;;16.77;12.63;;;18.40;99.90;;;;;;5052856;28;20200;-74
2021/09/26 02:56:20;;;;;;;18.53;12.43;;;18.40;99.90;;;;;;5052778;28;20202;-74
2021/09/26 02:58:47;;;;;;;17.80;11.50;;;18.40;99.90;;;;;;5052725;28;20554;-74
2021/09/26 03:01:14;;;;;;;21.17;11.87;;;18.40;99.90;;;;;;5052822;28;20224;-74
2021/09/26 03:03:40;;;;;;;19.00;11.67;;;18.30;99.90;;;;;;5052659;28;20580;-73
2021/09/26 03:06:07;;;;;;;20.30;12.07;;;18.40;99.90;;;;;;5052755;28;20196;-74
2021/09/26 03:08:35;;;;;;;18.23;11.70;;;18.30;99.90;;;;;;5052648;28;20200;-74
2021/09/26 03:11:03;;;;;;;20.90;12.43;;;18.30;99.90;;;;;;5052848;28;20196;-74
2021/09/26 03:13:30;;;;;;;19.60;12.67;;;18.30;99.90;;;;;;5053882;28;20228;-74
2021/09/26 03:15:57;;;;;;;17.70;11.57;;;18.30;99.90;;;;;;5056905;28;20196;-74
2021/09/26 03:18:25;;;;;;;18.13;11.97;;;18.30;99.90;;;;;;5056657;28;20218;-74
2021/09/26 03:20:52;;;;;;;18.40;11.17;;;18.30;99.90;;;;;;5056552;28;20224;-74
2021/09/26 03:23:19;;;;;;;18.20;12.30;;;18.40;99.90;;;;;;5056958;28;20196;-74
2021/09/26 03:25:47;;;;;;;21.27;12.03;;;18.40;99.90;;;;;;5056694;28;20204;-74
2021/09/26 03:28:14;;;;;;;17.00;11.67;;;18.40;99.90;;;;;;5056746;28;20238;-74
2021/09/26 03:30:40;;;;;;;22.60;12.50;;;18.40;99.90;;;;;;5056702;28;20291;-74
2021/09/26 03:33:07;;;;;;;21.43;12.43;;;18.30;99.90;;;;;;5056274;28;20230;-74
2021/09/26 03:35:36;;;;;;;21.53;12.47;;;18.20;99.90;;;;;;5056654;28;20192;-73
2021/09/26 03:38:03;;;;;;;18.63;11.50;;;18.20;99.90;;;;;;5056656;28;20199;-74
2021/09/26 03:40:31;;;;;;;18.63;12.37;;;18.00;99.90;;;;;;5056466;28;20196;-74
2021/09/26 03:43:00;;;;;;;22.10;12.97;;;17.90;99.90;;;;;;5056210;28;20531;-74
2021/09/26 03:45:26;;;;;;;17.83;12.17;;;17.90;99.90;;;;;;5056348;28;20204;-74
2021/09/26 03:47:54;;;;;;;19.13;13.00;;;17.80;99.90;;;;;;5056143;28;20193;-74
2021/09/26 03:50:21;;;;;;;22.17;13.30;;;17.80;99.90;;;;;;5056131;28;20211;-74
2021/09/26 03:52:48;;;;;;;22.10;13.40;;;17.60;99.90;;;;;;5056317;28;20214;-74
2021/09/26 03:55:15;;;;;;;23.50;12.93;;;17.50;99.90;;;;;;5056347;28;20192;-74
2021/09/26 03:57:42;;;;;;;21.47;13.33;;;17.50;99.90;;;;;;5056102;28;20654;-74
2021/09/26 04:00:15;;;;;;;23.30;13.17;;;17.50;99.90;;;;;;5055907;28;20192;-74
2021/09/26 04:02:42;;;;;;;23.27;14.27;;;17.40;99.90;;;;;;5055743;28;20231;-74
2021/09/26 04:05:10;;;;;;;19.20;13.10;;;17.50;99.90;;;;;;5056125;28;20287;-74
2021/09/26 04:07:37;;;;;;;21.50;13.90;;;17.50;99.90;;;;;;5056041;28;20222;-74
2021/09/26 04:10:07;;;;;;;19.07;12.67;;;17.40;99.90;;;;;;5055777;28;20291;-74
2021/09/26 04:12:35;;;;;;;21.27;14.17;;;17.40;99.90;;;;;;5055927;28;20576;-74
2021/09/26 04:15:02;;;;;;;20.73;13.23;;;17.40;99.90;;;;;;5055494;28;20288;-74
2021/09/26 04:17:30;;;;;;;22.23;14.67;;;17.30;99.90;;;;;;5055778;28;20206;-74
2021/09/26 04:19:57;;;;;;;24.77;15.17;;;17.40;99.90;;;;;;5055607;28;20756;-74
2021/09/26 04:22:24;;;;;;;21.43;13.67;;;17.30;99.90;;;;;;5055784;28;20228;-74
2021/09/26 04:24:51;;;;;;;23.23;15.07;;;17.30;99.90;;;;;;5054460;28;20200;-74
2021/09/26 04:27:18;;;;;;;22.60;14.53;;;17.40;99.90;;;;;;5055584;28;20207;-74
2021/09/26 04:29:45;;;;;;;21.77;14.23;;;17.40;99.90;;;;;;5055227;28;20563;-74
2021/09/26 04:32:12;;;;;;;23.47;15.03;;;17.40;99.90;;;;;;5055898;28;20204;-74
2021/09/26 04:34:40;;;;;;;22.33;14.57;;;17.40;99.90;;;;;;5055623;28;20278;-74
2021/09/26 04:37:07;;;;;;;23.30;14.87;;;17.40;99.90;;;;;;5055799;28;20197;-74
2021/09/26 04:39:34;;;;;;;27.60;14.87;;;17.40;99.90;;;;;;5055419;28;20192;-74
2021/09/26 04:42:01;;;;;;;26.60;15.50;;;17.40;99.90;;;;;;5055220;28;20231;-74
2021/09/26 04:44:28;;;;;;;24.87;15.67;;;17.40;99.90;;;;;;5054906;28;20700;-74
2021/09/26 04:46:55;;;;;;;23.50;14.90;;;17.50;99.90;;;;;;5055441;28;20207;-74
2021/09/26 04:49:27;;;;;;;25.17;16.23;;;17.50;99.90;;;;;;5055262;28;20296;-74
2021/09/26 04:51:56;;;;;;;23.90;15.80;;;17.50;99.90;;;;;;5055053;28;20648;-74
2021/09/26 04:54:22;;;;;;;25.13;15.70;;;17.50;99.90;;;;;;5055016;28;20661;-74
2021/09/26 04:56:49;;;;;;;25.97;16.03;;;17.50;99.90;;;;;;5054867;28;20208;-74
2021/09/26 04:59:17;;;;;;;30.40;16.27;;;17.50;99.90;;;;;;5054993;28;20197;-74
2021/09/26 05:01:44;;;;;;;27.43;17.13;;;17.50;99.90;;;;;;5055009;28;20235;-74
2021/09/26 05:04:11;;;;;;;30.93;16.60;;;17.50;99.90;;;;;;5054797;28;20653;-74
2021/09/26 05:06:38;;;;;;;32.67;17.57;;;17.50;99.90;;;;;;5054844;28;20192;-74
2021/09/26 05:09:06;;;;;;;29.60;18.17;;;17.40;99.90;;;;;;5054785;28;20202;-74
2021/09/26 05:11:33;;;;;;;27.63;17.03;;;17.40;99.90;;;;;;5054417;28;20211;-74
2021/09/26 05:14:00;;;;;;;28.73;18.60;;;17.30;99.90;;;;;;5054847;28;20220;-74
2021/09/26 05:16:29;;;;;;;29.40;18.43;;;17.30;99.90;;;;;;5054735;28;20200;-74
2021/09/26 05:18:56;;;;;;;31.67;19.00;;;17.20;99.90;;;;;;5054493;28;20200;-74
2021/09/26 05:21:22;;;;;;;36.77;19.37;;;17.20;99.90;;;;;;5054527;28;20224;-74
2021/09/26 05:23:50;;;;;;;31.33;18.77;;;17.20;99.90;;;;;;5054248;28;20204;-74
2021/09/26 05:26:18;;;;;;;35.03;19.33;;;17.20;99.90;;;;;;5054372;28;20204;-74
2021/09/26 05:28:45;;;;;;;33.40;19.17;;;17.20;99.90;;;;;;5054567;28;20199;-74
2021/09/26 05:31:11;;;;;;;31.20;18.40;;;17.20;99.90;;;;;;5054381;28;20207;-74
2021/09/26 05:33:38;;;;;;;32.77;20.13;;;17.30;99.90;;;;;;5054227;28;20286;-74
2021/09/26 05:36:05;;;;;;;31.97;19.53;;;17.20;99.90;;;;;;5053845;28;20206;-73
2021/09/26 05:38:32;;;;;;;38.77;20.13;;;17.10;99.90;;;;;;5054075;28;20228;-74
2021/09/26 05:41:00;;;;;;;36.33;20.30;;;17.00;99.90;;;;;;5053862;28;20557;-74
2021/09/26 05:43:28;;;;;;;35.93;20.07;;;17.00;99.90;;;;;;5054413;28;20286;-74
2021/09/26 05:45:55;;;;;;;35.03;20.60;;;17.10;99.90;;;;;;5054109;28;20197;-74
2021/09/26 05:48:21;;;;;;;38.93;20.87;;;17.20;99.90;;;;;;5054097;28;20192;-74
2021/09/26 05:50:48;;;;;;;39.30;22.03;;;17.20;99.90;;;;;;5053987;28;20212;-75
2021/09/26 05:53:15;;;;;;;42.80;22.00;;;17.20;99.90;;;;;;5053680;28;20283;-74
2021/09/26 05:55:42;;;;;;;37.43;21.97;;;17.10;99.90;;;;;;5053750;28;20202;-74
2021/09/26 05:58:09;;;;;;;43.03;23.17;;;17.10;99.90;;;;;;5053950;28;20196;-74
2021/09/26 06:00:37;;;;;;;43.57;22.20;;;17.20;99.90;;;;;;5053928;28;20203;-74
2021/09/26 06:03:04;;;;;;;42.97;23.47;;;17.20;99.90;;;;;;5053671;28;20232;-74
2021/09/26 06:05:31;;;;;;;44.67;23.00;;;17.20;99.90;;;;;;5053585;28;20196;-74
2021/09/26 06:07:57;;;;;;;43.63;23.90;;;17.30;99.90;;;;;;5053686;28;20200;-74
2021/09/26 06:10:25;;;;;;;45.53;24.33;;;17.30;99.90;;;;;;5053834;28;20200;-74
2021/09/26 06:12:51;;;;;;;43.70;22.83;;;17.40;99.90;;;;;;5053754;28;20204;-75
2021/09/26 06:15:18;;;;;;;44.33;23.40;;;17.40;99.90;;;;;;5053519;28;20196;-75
2021/09/26 06:17:46;;;;;;;44.13;24.23;;;17.30;99.90;;;;;;5053641;28;20196;-75
2021/09/26 06:20:14;;;;;;;40.83;23.93;;;17.40;99.90;;;;;;5053212;28;20532;-74
2021/09/26 06:22:41;;;;;;;45.40;23.30;;;17.40;99.90;;;;;;5053161;28;20227;-75
2021/09/26 06:25:09;;;;;;;49.40;26.10;;;17.40;99.90;;;;;;5053641;28;20286;-75
2021/09/26 06:27:36;;;;;;;49.97;25.77;;;17.50;99.90;;;;;;5053392;28;20614;-74
2021/09/26 06:30:05;;;;;;;52.10;28.17;;;17.50;99.90;;;;;;5053418;28;20569;-74
2021/09/26 06:32:34;;;;;;;54.17;28.80;;;17.50;99.90;;;;;;5053166;28;20200;-75
2021/09/26 06:35:04;;;;;;;58.93;30.03;;;17.60;99.90;;;;;;5053462;28;20250;-74
2021/09/26 06:37:31;;;;;;;59.17;31.00;;;17.60;99.90;;;;;;5053211;28;20283;-75
2021/09/26 06:39:58;;;;;;;58.13;30.10;;;17.60;99.90;;;;;;5053143;28;20688;-74
2021/09/26 06:42:24;;;;;;;62.97;31.50;;;17.60;99.90;;;;;;5053092;28;20224;-75
2021/09/26 06:44:51;;;;;;;61.77;31.83;;;17.60;99.90;;;;;;5053105;28;20569;-75
2021/09/26 06:47:18;;;;;;;69.77;34.70;;;17.60;99.90;;;;;;5052794;28;20196;-74
2021/09/26 06:49:45;;;;;;;70.10;34.10;;;17.60;99.90;;;;;;5052176;28;20200;-75
2021/09/26 06:52:13;;;;;;;66.93;34.30;;;17.60;99.90;;;;;;5053124;28;20196;-74
2021/09/26 06:54:41;;;;;;;65.47;33.27;;;17.60;99.90;;;;;;5052952;28;20235;-75
2021/09/26 06:57:08;;;;;;;66.97;33.90;;;17.60;99.90;;;;;;5052938;28;20200;-75
2021/09/26 06:59:35;;;;;;;71.73;35.97;;;17.70;99.90;;;;;;5052962;28;20192;-75
2021/09/26 07:02:02;;;;;;;66.53;35.33;;;17.70;99.90;;;;;;5052687;28;20248;-74
2021/09/26 07:04:28;;;;;;;66.37;35.37;;;17.70;99.90;;;;;;5052780;28;20239;-74
2021/09/26 07:06:55;;;;;;;65.37;34.97;;;17.80;99.90;;;;;;5052908;28;20283;-74
2021/09/26 07:09:24;;;;;;;71.50;36.37;;;17.80;99.90;;;;;;5052880;28;20199;-75
2021/09/26 07:11:50;;;;;;;66.80;35.97;;;17.90;99.90;;;;;;5052852;28;20672;-74
2021/09/26 07:14:17;;;;;;;61.17;33.80;;;18.10;99.90;;;;;;5052976;28;20198;-74
2021/09/26 07:16:44;;;;;;;62.63;33.90;;;18.30;99.90;;;;;;5052978;28;20203;-74
2021/09/26 07:19:12;;;;;;;63.40;33.77;;;18.50;99.90;;;;;;5052482;28;20207;-74
2021/09/26 07:21:39;;;;;;;57.83;32.10;;;18.70;99.90;;;;;;5052671;28;20726;-75
2021/09/26 07:24:06;;;;;;;56.17;32.77;;;18.70;99.90;;;;;;5052688;28;20202;-75
2021/09/26 07:26:34;;;;;;;51.07;30.53;;;18.80;99.90;;;;;;5052669;28;20203;-74
2021/09/26 07:29:01;;;;;;;53.37;30.87;;;18.80;99.90;;;;;;5052460;28;20200;-75
2021/09/26 07:31:28;;;;;;;54.53;31.30;;;18.70;99.90;;;;;;5052376;28;20200;-74
2021/09/26 07:33:55;;;;;;;47.53;29.77;;;18.70;99.90;;;;;;5052368;28;20662;-74
2021/09/26 07:36:21;;;;;;;52.03;31.50;;;18.70;99.90;;;;;;5052599;28;20192;-74
2021/09/26 07:38:48;;;;;;;53.37;30.53;;;18.80;99.90;;;;;;5052624;28;20200;-75
2021/09/26 07:41:15;;;;;;;51.87;30.23;;;18.80;99.90;;;;;;5052573;28;20192;-75
2021/09/26 07:43:43;;;;;;;53.37;30.57;;;18.90;99.90;;;;;;5052184;28;20568;-75
2021/09/26 07:46:11;;;;;;;50.33;31.10;;;19.00;99.90;;;;;;5052191;28;20196;-74
2021/09/26 07:48:38;;;;;;;53.07;31.90;;;19.10;99.90;;;;;;5052530;28;20196;-76
2021/09/26 07:51:05;;;;;;;53.73;31.77;;;19.20;99.90;;;;;;5052256;28;20657;-75
2021/09/26 07:53:32;;;;;;;50.00;31.53;;;19.40;99.90;;;;;;5052324;28;20667;-74
2021/09/26 07:55:59;;;;;;;50.97;31.77;;;19.50;99.90;;;;;;5052239;28;20254;-75
2021/09/26 07:58:27;;;;;;;53.60;32.73;;;19.70;99.90;;;;;;5052482;28;20287;-75
2021/09/26 08:00:55;;;;;;;46.03;31.10;;;19.70;99.90;;;;;;5055231;28;20200;-75
2021/09/26 08:03:22;;;;;;;52.97;31.83;;;19.60;99.90;;;;;;5056022;28;20322;-74
2021/09/26 08:05:49;;;;;;;45.93;30.53;;;19.60;99.90;;;;;;5056033;28;20279;-74
2021/09/26 08:08:16;;;;;;;47.63;29.77;;;19.80;99.90;;;;;;5055902;28;20227;-74
2021/09/26 08:10:43;;;;;;;46.00;29.90;;;20.10;99.90;;;;;;5056028;28;20197;-74
2021/09/26 08:13:09;;;;;;;43.90;29.50;;;20.20;99.90;;;;;;5055870;28;20212;-75
2021/09/26 08:15:36;;;;;;;42.57;28.83;;;20.30;99.90;;;;;;5055711;28;20657;-75
2021/09/26 08:18:04;;;;;;;41.17;27.80;;;20.40;99.90;;;;;;5055808;28;20291;-75
2021/09/26 08:20:31;;;;;;;42.70;28.13;;;20.50;99.90;;;;;;5055742;28;20196;-74
2021/09/26 08:22:58;;;;;;;38.93;26.53;;;20.50;99.90;;;;;;5055592;28;20230;-75
2021/09/26 08:25:25;;;;;;;41.10;27.50;;;20.60;99.90;;;;;;5055785;28;20200;-75
2021/09/26 08:27:52;;;;;;;39.80;27.17;;;20.70;99.90;;;;;;5055570;28;20567;-74
2021/09/26 08:30:20;;;;;;;37.57;25.63;;;21.00;99.90;;;;;;5055623;28;20200;-74
2021/09/26 08:32:48;;;;;;;39.33;25.23;;;21.20;99.90;;;;;;5055217;28;20668;-75
2021/09/26 08:35:17;;;;;;;35.07;24.40;;;21.40;99.90;;;;;;5055497;28;20199;-75
2021/09/26 08:37:45;;;;;;;42.13;24.97;;;21.40;99.90;;;;;;5055259;28;20239;-75
2021/09/26 08:40:13;;;;;;;34.93;23.47;;;21.50;99.90;;;;;;5055442;28;20283;-75
2021/09/26 08:42:41;;;;;;;34.77;23.47;;;21.60;99.90;;;;;;5055172;28;20224;-75
2021/09/26 08:45:12;;;;;;;32.58;23.00;;;21.80;99.90;;;;;;5055214;28;20563;-74
2021/09/26 08:47:40;;;;;;;33.60;23.00;;;21.80;99.90;;;;;;5055196;28;20196;-74
2021/09/26 08:50:09;;;;;;;33.25;22.63;;;21.90;99.90;;;;;;5054962;28;20204;-74
2021/09/26 08:52:37;;;;;;;32.47;22.20;;;21.70;99.90;;;;;;5055263;28;20207;-74
2021/09/26 08:55:05;;;;;;;31.53;21.70;;;21.70;99.90;;;;;;5055176;28;20199;-74
2021/09/26 08:57:31;;;;;;;30.73;21.17;;;21.70;99.90;;;;;;5054852;28;20196;-75
2021/09/26 08:59:58;;;;;;;30.38;21.63;;;21.70;99.90;;;;;;5055052;28;20382;-74
2021/09/26 09:02:25;;;;;;;30.60;21.30;;;21.70;99.90;;;;;;5054694;28;20703;-74
2021/09/26 09:04:52;;;;;;;32.13;20.33;;;21.70;99.90;;;;;;5054559;28;20541;-75
2021/09/26 09:07:20;;;;;;;32.67;21.48;;;21.80;99.90;;;;;;5054774;28;20664;-75
2021/09/26 09:09:53;;;;;;;30.73;20.77;;;21.80;99.90;;;;;;5054934;28;20192;-74
2021/09/26 09:12:26;;;;;;;30.42;21.35;;;21.80;99.90;;;;;;5053821;28;20196;-74
2021/09/26 09:14:55;;;;;;;28.17;18.90;;;21.80;99.90;;;;;;5054637;28;20192;-74
2021/09/26 09:17:30;;;;;;;28.17;19.87;;;21.80;99.90;;;;;;5054542;28;20677;-74
2021/09/26 09:20:19;;;;;;;26.65;19.33;;;21.70;99.90;;;;;;5054725;28;20192;-75
2021/09/26 09:22:50;;;;;;;31.63;21.07;;;21.60;99.90;;;;;;5054544;28;20307;-75
2021/09/26 09:25:38;;;;;;;30.87;20.47;;;21.70;99.90;;;;;;5054271;28;20192;-75
2021/09/26 09:28:07;;;;;;;30.33;19.83;;;21.90;99.90;;;;;;5054653;28;20228;-75
2021/09/26 09:30:36;;;;;;;27.60;19.92;;;22.00;99.90;;;;;;5054500;28;20279;-74
2021/09/26 09:33:04;;;;;;;27.93;20.60;;;22.00;99.90;;;;;;5054069;28;20208;-74
2021/09/26 09:35:39;;;;;;;26.50;19.10;;;22.00;99.90;;;;;;5054278;28;20200;-74
2021/09/26 09:38:06;;;;;;;25.13;19.13;;;22.10;99.90;;;;;;5053960;28;20306;-74
2021/09/26 09:40:35;;;;;;;23.92;18.08;;;22.30;99.90;;;;;;5054102;28;20652;-75
2021/09/26 09:43:03;;;;;;;24.58;18.60;;;22.30;99.90;;;;;;5054183;28;20311;-75
2021/09/26 09:45:32;;;;;;;26.05;18.83;;;22.40;99.90;;;;;;5054134;28;20279;-75
2021/09/26 09:48:12;;;;;;;25.60;18.67;;;22.60;99.90;;;;;;5054224;28;20291;-75
2021/09/26 09:50:58;;;;;;;21.45;16.75;;;22.80;99.90;;;;;;5053860;28;20294;-75
2021/09/26 09:53:31;;;;;;;24.05;18.10;;;23.10;99.90;;;;;;5054009;28;20291;-75
2021/09/26 09:56:06;;;;;;;21.70;16.23;;;23.20;99.90;;;;;;5053962;28;20254;-75
2021/09/26 09:58:37;;;;;;;21.33;15.88;;;23.20;99.90;;;;;;5053657;28;20200;-75
2021/09/26 10:01:07;;;;;;;19.80;15.07;;;23.10;99.90;;;;;;5053532;28;20196;-75
2021/09/26 10:03:52;;;;;;;21.45;16.15;;;23.20;99.90;;;;;;5053775;28;20255;-75
2021/09/26 10:06:23;;;;;;;19.70;14.73;;;23.30;99.90;;;;;;5053612;28;20200;-75
2021/09/26 10:08:50;;;;;;;18.58;14.00;;;23.40;99.90;;;;;;5053713;28;20204;-75
2021/09/26 10:11:18;;;;;;;17.98;14.18;;;23.50;99.90;;;;;;5053571;28;20452;-75
2021/09/26 10:13:47;;;;;;;19.40;13.60;;;23.60;99.90;;;;;;5053430;28;20736;-75
2021/09/26 10:16:15;;;;;;;17.30;12.75;;;23.50;99.90;;;;;;5053457;28;20204;-75
2021/09/26 10:18:42;;;;;;;20.05;12.98;;;23.50;99.90;;;;;;5053470;28;20200;-75
2021/09/26 10:21:11;;;;;;;21.92;13.35;;;23.50;99.90;;;;;;5053348;28;20200;-75
2021/09/26 10:23:40;;;;;;;15.75;11.82;;;23.40;99.90;;;;;;5053167;28;20310;-75
2021/09/26 10:26:08;;;;;;;14.38;11.27;;;23.40;99.90;;;;;;5053051;28;20676;-75
2021/09/26 10:28:37;;;;;;;15.80;12.00;;;23.60;99.90;;;;;;5053101;28;20196;-75
2021/09/26 10:31:05;;;;;;;16.50;12.18;;;23.70;99.90;;;;;;5053293;28;20192;-75
2021/09/26 10:33:34;;;;;;;14.18;11.10;;;23.80;99.90;;;;;;5052929;28;20232;-75
2021/09/26 10:36:03;;;;;;;16.27;12.18;;;23.90;99.90;;;;;;5053093;28;20206;-75
2021/09/26 10:38:31;;;;;;;14.60;11.80;;;24.00;99.90;;;;;;5053044;28;20207;-75
2021/09/26 10:41:06;;;;;;;15.23;10.77;;;24.10;99.90;;;;;;5053230;28;20196;-76
2021/09/26 10:43:33;;;;;;;15.35;11.05;;;24.20;99.90;;;;;;5053054;28;20318;-75
2021/09/26 10:46:24;;;;;;;14.60;9.60;;;24.30;99.90;;;;;;5053057;28;20275;-75
2021/09/26 10:49:12;;;;;;;13.05;10.18;;;24.00;99.90;;;;;;5052820;28;20297;-75
2021/09/26 10:51:47;;;;;;;13.43;10.18;;;23.80;99.90;;;;;;5052859;28;20246;-75
2021/09/26 10:54:36;;;;;;;11.13;9.93;;;23.90;99.90;;;;;;5052864;28;20210;-75
2021/09/26 10:57:20;;;;;;;11.60;9.18;;;23.90;99.90;;;;;;5052870;28;20228;-75
2021/09/26 10:59:48;;;;;;;11.68;7.60;;;24.10;99.90;;;;;;5052759;28;20628;-75
2021/09/26 11:02:53;;;;;;;9.23;7.35;;;24.40;99.90;;;;;;5052810;28;20287;-75
2021/09/26 11:05:40;;;;;;;8.90;7.88;;;24.70;99.90;;;;;;5011144;28;20312;-75
2021/09/26 11:08:13;;;;;;;10.95;7.63;;;25.10;99.90;;;;;;5010900;28;20587;-75
2021/09/26 11:10:45;;;;;;;9.88;7.30;;;25.00;99.90;;;;;;5038385;28;20207;-75
2021/09/26 11:13:20;;;;;;;8.60;7.28;;;25.20;99.90;;;;;;5052769;28;20295;-75
2021/09/26 11:16:01;;;;;;;7.80;6.90;;;25.50;99.90;;;;;;5052621;28;20202;-75
2021/09/26 11:19:02;;;;;;;9.23;7.07;;;25.50;99.90;;;;;;5052770;28;20198;-75
2021/09/26 11:21:49;;;;;;;9.65;7.45;;;25.60;99.90;;;;;;5010819;28;20196;-75
2021/09/26 11:24:27;;;;;;;8.23;6.63;;;25.60;99.90;;;;;;5049486;28;20583;-76
2021/09/26 11:27:15;;;;;;;7.80;6.97;;;25.70;99.90;;;;;;5052872;28;20308;-75
2021/09/26 11:30:26;;;;;;;11.93;7.45;;;25.50;99.90;;;;;;5050669;28;20192;-75
2021/09/26 11:33:04;;;;;;;9.73;7.25;;;25.50;99.90;;;;;;5052261;28;20231;-75
2021/09/26 11:35:34;;;;;;;10.93;7.03;;;25.70;99.90;;;;;;5055373;28;20199;-75
2021/09/26 11:38:04;;;;;;;10.10;7.05;;;25.90;99.90;;;;;;5056858;28;20550;-75
2021/09/26 11:40:55;;;;;;;9.85;7.05;;;26.10;99.90;;;;;;5056231;28;20515;-75
2021/09/26 11:43:24;;;;;;;8.73;6.80;;;26.10;99.90;;;;;;5055977;28;20230;-75
2021/09/26 11:45:52;;;;;;;7.90;6.28;;;26.30;99.90;;;;;;5056429;28;20283;-75
2021/09/26 11:48:19;;;;;;;7.88;6.75;;;26.40;99.90;;;;;;5056481;28;20227;-76
2021/09/26 11:50:48;;;;;;;8.50;6.43;;;26.60;99.90;;;;;;5056717;28;20250;-75
2021/09/26 11:53:16;;;;;;;8.07;6.32;;;26.70;99.90;;;;;;5056046;28;20291;-75
2021/09/26 11:55:44;;;;;;;8.90;6.18;;;27.10;99.90;;;;;;5056040;28;20196;-75
2021/09/26 11:58:13;;;;;;;7.78;6.35;;;27.70;99.90;;;;;;5056138;28;20202;-75
2021/09/26 12:00:42;;;;;;;8.18;5.50;;;28.00;99.90;;;;;;5055963;28;20203;-75
2021/09/26 12:03:13;;;;;;;8.80;6.00;;;28.00;99.90;;;;;;5055915;28;20196;-75
2021/09/26 12:05:41;;;;;;;9.52;5.22;;;27.60;99.90;;;;;;5055934;28;20204;-75
2021/09/26 12:08:09;;;;;;;8.85;5.10;;;27.70;99.90;;;;;;5055637;28;20637;-76
2021/09/26 12:10:36;;;;;;;7.47;5.05;;;27.50;99.90;;;;;;5055975;28;20199;-75
2021/09/26 12:13:18;;;;;;;7.18;4.82;;;27.30;99.90;;;;;;5055765;28;20200;-75
2021/09/26 12:15:46;;;;;;;5.07;4.57;;;27.00;99.90;;;;;;5055722;28;20283;-76
2021/09/26 12:18:24;;;;;;;11.15;5.15;;;26.70;99.90;;;;;;5055635;28;20196;-75
2021/09/26 12:21:04;;;;;;;6.93;5.45;;;26.50;99.90;;;;;;5055475;28;20196;-76
2021/09/26 12:23:44;;;;;;;8.75;4.47;;;26.30;99.90;;;;;;5055571;28;20684;-75
2021/09/26 12:26:11;;;;;;;7.10;4.60;;;26.20;99.90;;;;;;5055444;28;20253;-75
2021/09/26 12:28:40;;;;;;;6.90;4.70;;;26.40;99.90;;;;;;5055645;28;20290;-75
2021/09/26 12:31:08;;;;;;;5.63;4.97;;;26.90;99.90;;;;;;5055467;28;20204;-75
2021/09/26 12:33:42;;;;;;;6.00;4.78;;;27.40;99.90;;;;;;5055498;28;20227;-76
2021/09/26 12:36:16;;;;;;;8.40;4.65;;;27.10;99.90;;;;;;5055570;28;20195;-75
2021/09/26 12:38:53;;;;;;;8.35;4.93;;;26.80;99.90;;;;;;5055259;28;20196;-75
2021/09/26 12:41:27;;;;;;;7.65;4.82;;;26.40;99.90;;;;;;5055189;28;20204;-75
2021/09/26 12:43:57;;;;;;;7.38;5.00;;;26.20;99.90;;;;;;5055381;28;20318;-75